Flight Track Log - Related Links

Times and Time Zones

All times are in EST time to prevent confusion due to time zone crossing. See the JBU56 flight status page for this flight to view local times or setup timezone preferences in your user account.

Time Position Orientation Groundspeed Altitude Reporting Facility
EST Latitude Longitude Course Direction KTS MPH feet Rate Location/Type
Thu 09:58:51 AM 38.9500 -77.5000 67° East 167 192 1,300  Level Potomac TRACON
Thu 09:59:51 AM 38.9833 -77.5500 311° West 225 259 2,900 2,087 Climbing Potomac TRACON
Thu 10:00:46 AM 39.0500 -77.5667 349° North 285 328 5,300 3,078 Climbing Potomac TRACON
Thu 10:01:46 AM 39.1000 -77.5000 46° Northeast 292 336 8,800 1,649 Climbing Potomac TRACON
Thu 10:02:00 AM 39.1858 -77.0501 90° East  Level Estimated
Thu 10:03:00 AM 39.2452 -76.9473 74° East  Level Estimated
Thu 10:03:37 AM 39.1697 -77.3264 63° Northeast 341 392 10,000  Level Washington Center
Thu 10:04:00 AM 39.3045 -76.8442 67° East  Level Estimated
Thu 10:04:35 AM 39.1383 -77.1972 107° East 350 403 12,800  Level Washington Center
Thu 10:05:35 AM 39.1044 -77.0681 109° East 363 418 15,500 2,213 Climbing Washington Center
Thu 10:06:37 AM 39.1081 -76.9236 88° East 376 433 17,300 1,574 Climbing Washington Center
Thu 10:07:37 AM 39.1181 -76.7689 85° East 405 466 18,700 1,729 Climbing Washington Center
Thu 10:08:35 AM 39.1278 -76.6111 85° East 424 488 20,700 1,678 Climbing Washington Center
Thu 10:09:35 AM 39.1375 -76.4506 85° East 442 509 22,000 1,150 Climbing Washington Center
Thu 10:10:35 AM 39.1469 -76.2794 86° East 454 522 23,000 496 Climbing Washington Center
Thu 10:11:36 AM 39.1686 -76.1083 81° East 475 547 23,000  Level Washington Center
Thu 10:12:37 AM 39.1858 -75.9397 82° East 480 552 23,000  Level Washington Center
Thu 10:13:35 AM 39.2550 -75.8006 57° Northeast 468 539 23,000 202 Level Washington Center
Thu 10:14:36 AM 39.3467 -75.6856 44° Northeast 445 512 23,400 900 Climbing Washington Center
Thu 10:15:35 AM 39.4364 -75.5672 46° Northeast 445 512 24,800 1,311 Climbing Washington Center
Thu 10:16:35 AM 39.5258 -75.4489 46° Northeast 450 518 26,000 1,301 Climbing Washington Center
Thu 10:18:21 AM 39.7003 -75.2175 46° Northeast 471 542 28,400 1,446 Climbing New York Center
Thu 10:19:21 AM 39.7864 -75.0906 49° Northeast 472 543 30,000 1,300 Climbing New York Center
Thu 10:20:21 AM 39.8675 -74.9764 47° Northeast 472 543 31,000 500 Climbing New York Center
Thu 10:21:21 AM 39.9642 -74.8389 47° Northeast 472 543 31,000  Level New York Center
Thu 10:22:21 AM 40.0539 -74.7111 47° Northeast 472 543 31,000  Level New York Center
Thu 10:23:21 AM 40.1417 -74.5803 49° Northeast 472 543 31,000  Level New York Center
Thu 10:24:21 AM 40.2286 -74.4683 44° Northeast 479 551 31,000  Level New York Center
Thu 10:25:21 AM 40.3300 -74.3594 39° Northeast 474 545 31,000 -500 Level New York Center
Thu 10:26:21 AM 40.4397 -74.2422 39° Northeast 463 533 30,000 -942 Descending New York Center
Thu 10:28:13 AM 40.5547 -74.0011 58° Northeast 462 532 28,300 -942 Descending Boston Center
Thu 10:29:13 AM 40.5958 -73.8397 71° East 463 533 27,300 -645 Descending Boston Center
Thu 10:30:14 AM 40.6775 -73.7139 49° Northeast 447 514 27,000 -149 Descending Boston Center
Thu 10:31:14 AM 40.7614 -73.5900 48° Northeast 449 517 27,000  Level Boston Center
Thu 10:32:18 AM 40.8447 -73.4667 48° Northeast 449 517 27,000  Level Boston Center
Thu 10:33:18 AM 40.9261 -73.3436 49° Northeast 444 511 27,000 -150 Level Boston Center
Thu 10:34:18 AM 41.0111 -73.2192 48° Northeast 441 507 26,700 -893 Descending Boston Center
Thu 10:35:19 AM 41.0936 -73.0958 48° Northeast 447 514 25,200 -1,488 Descending Boston Center
Thu 10:36:23 AM 41.1731 -72.9758 49° Northeast 439 505 23,600 -1,065 Descending Boston Center
Thu 10:37:23 AM 41.2525 -72.8239 55° Northeast 428 493 23,000 -298 Descending Boston Center
Thu 10:38:24 AM 41.3044 -72.6775 65° Northeast 432 497 23,000  Level Boston Center
Thu 10:39:24 AM 41.3533 -72.5322 66° East 430 495 23,000  Level Boston Center
Thu 10:40:27 AM 41.4028 -72.3886 65° Northeast 428 493 23,000 -339 Level Boston Center
Thu 10:41:28 AM 41.4522 -72.2425 66° East 431 496 22,300 -1,438 Descending Boston Center
Thu 10:42:28 AM 41.5008 -72.1000 65° Northeast 426 490 20,100 -1,983 Descending Boston Center
Thu 10:43:29 AM 41.5511 -71.9522 66° East 406 467 18,300 -2,129 Descending Boston Center
Thu 10:44:32 AM 41.5956 -71.8189 66° East 396 456 15,700 -2,274 Descending Boston Center
Thu 10:45:33 AM 41.6408 -71.6833 66° East 378 435 13,600 -1,967 Descending Boston Center
Thu 10:46:34 AM 41.6794 -71.5661 66° East 355 409 11,700 -1,240 Descending Boston Center
Thu 10:47:34 AM 41.7183 -71.4486 66° East 327 376 11,100 -298 Descending Boston Center
Thu 10:48:35 AM 41.7675 -71.3586 54° Northeast 305 351 11,100  Level Boston Center
Thu 10:49:39 AM 41.8211 -71.2683 51° Northeast 310 357 11,100 -672 Level Boston Center
Thu 10:50:40 AM 41.9064 -71.2253 21° North 306 352 9,700 -1,438 Descending Boston Center
Thu 10:51:40 AM 41.9853 -71.1894 19° North 301 346 8,200 -1,550 Descending Boston Center
Thu 10:52:40 AM 42.0639 -71.1511 20° North 301 346 6,600 -1,409 Descending Boston Center
Thu 10:53:35 AM 42.1333 -71.1167 20° North 242 278 5,500 -1,537 Descending KA90
Thu 10:54:41 AM 42.2000 -71.0833 20° North 232 267 3,500 -1,559 Descending KA90
Thu 10:55:42 AM 42.2500 -71.0500 26° Northeast 216 249 2,200 -1,134 Descending KA90
Thu 10:56:48 AM 42.3167 -71.0333 10° North 179 206 1,100 -947 Descending KA90
Thu 10:57:36 AM 42.3333 -71.0167 36° Northeast 134 154 400 -875 Descending KA90
Thu 10:59:00 AM 42.3500 -71.0000 North  Level FlightAware Approximate
Thu 11:06:00 AM 42.3630 -71.0064 North  Level Estimated

Login

Don't have an account? Register now (free) for customized features, flight alerts, and more!